Bookmark and Share
Track history (hours):
 

Battle Point

Last reported at 2014-Apr-23 14:18 UTC. Time now 2014-Apr-25 05:50 UTC.
Position N 49°16' W 124°09'.

Length 57 m; draft 3.2 m.

MMSI: 369970254.

NotesDate/timePositionNaut miles runAvg speedWind from/ knotsBaromVisibWave heightAir tempDewpointWater temp
2014-Apr-23 14:18N 49°16' W 124°09'2 0.1
2014-Apr-22 20:30N 49°16' W 124°06'5 5.1
2014-Apr-22 19:33N 49°19' W 123°59'1 1.0
2014-Apr-22 18:33N 49°19' W 123°58'5 0.4
2014-Apr-22 04:15N 49°16' W 124°05'810.9
2014-Apr-22 03:33N 49°14' W 123°53'1110.7
2014-Apr-22 02:33N 49°10' W 123°38'1110.9
2014-Apr-22 01:33N 49°05' W 123°24'1110.5
2014-Apr-22 00:33N 48°58' W 123°11'1010.4
2014-Apr-21 23:33N 48°52' W 122°59'1010.3
2014-Apr-21 22:33N 48°46' W 122°47'8 8.5
2014-Apr-21 21:33N 48°37' W 122°44'8 8.3
2014-Apr-21 20:33N 48°29' W 122°44'10 9.3
2014-Apr-21 19:30N 48°19' W 122°46'1010.1
2014-Apr-21 18:32N 48°10' W 122°43'1211.7
2014-Apr-21 17:31N 47°59' W 122°35'1010.0
2014-Apr-21 16:33N 47°51' W 122°27'9 8.7
2014-Apr-21 15:33N 47°43' W 122°33'3 2.6
2014-Apr-21 14:33N 47°42' W 122°37'0 0.0
2014-Apr-21 13:33N 47°42' W 122°37'  
2014-Apr-15 20:21N 47°42' W 122°37'7 8.3
2014-Apr-15 19:33N 47°36' W 122°35'3 2.9
2014-Apr-15 18:33N 47°34' W 122°32'0 0.0
2014-Apr-15 17:33N 47°34' W 122°32'0 0.0
2014-Apr-15 16:33N 47°34' W 122°32'0 0.0
2014-Apr-15 15:33N 47°34' W 122°32'4 4.3
2014-Apr-15 14:33N 47°37' W 122°35'  

Dump ship's entire track history

sailing weather and tide predictions

Battle Point — NMBY — position and weather